.
WxDataArchive / Data Records for 2007-11-11
2007-11-10 November 2007 2007-11-12

Data Records for Sunday, 11 November 2007

Time	Temp	Chill	HIndex	Humid	Dewpt	 Wind 	HiWind	WindDir	Rain 	Barom 
-----	----	-----	------	-----	-----	------	------	-------	-----	----- 
00:00	38.0	38.0	38.0	79	32.1	0	1	135	0.00	30.154 
00:05	37.9	37.9	37.9	79	32.0	0	0	---	0.00	30.154 
00:10	37.8	37.8	37.8	79	31.9	0	0	---	0.00	30.153 
00:15	37.8	37.8	37.8	80	32.2	0	0	---	0.00	30.150 
00:20	37.6	37.6	37.6	80	32.0	0	0	---	0.00	30.148 
00:25	37.5	37.5	37.5	80	31.9	0	0	---	0.00	30.145 
00:30	37.5	37.5	37.5	81	32.2	0	0	---	0.00	30.146 
00:35	37.3	37.3	37.3	81	32.0	0	1	135	0.00	30.144 
00:40	37.5	37.5	37.5	81	32.2	0	1	135	0.00	30.141 
00:45	37.6	37.6	37.6	81	32.3	0	1	135	0.00	30.141 
00:50	37.8	37.8	37.8	81	32.5	0	2	135	0.00	30.140 
00:55	37.9	37.9	37.9	81	32.6	0	1	135	0.00	30.140 
01:00	37.9	37.9	37.9	81	32.6	0	1	135	0.00	30.137 
01:05	38.0	38.0	38.0	80	32.4	0	1	135	0.00	30.135 
01:10	38.2	38.2	38.2	80	32.6	0	1	135	0.00	30.136 
01:15	38.2	38.2	38.2	80	32.6	0	1	135	0.00	30.139 
01:20	38.2	38.2	38.2	80	32.6	0	0	---	0.00	30.145 
01:25	38.0	38.0	38.0	80	32.4	0	0	---	0.00	30.148 
01:30	38.0	38.0	38.0	80	32.4	0	0	---	0.00	30.149 
01:35	37.9	37.9	37.9	81	32.6	0	1	135	0.00	30.148 
01:40	37.9	37.9	37.9	81	32.6	0	1	135	0.00	30.147 
01:45	37.8	37.8	37.8	81	32.5	0	0	---	0.00	30.146 
01:50	37.8	37.8	37.8	81	32.5	0	1	135	0.00	30.148 
01:55	37.9	37.9	37.9	81	32.6	0	1	135	0.00	30.150 
02:00	37.9	37.9	37.9	81	32.6	0	1	135	0.00	30.151 
02:05	38.0	38.0	38.0	81	32.7	0	0	---	0.00	30.153 
02:10	37.9	37.9	37.9	81	32.6	0	1	135	0.00	30.151 
02:15	37.8	37.8	37.8	81	32.5	0	1	135	0.00	30.149 
02:20	37.8	37.8	37.8	81	32.5	0	0	---	0.00	30.151 
02:25	37.6	37.6	37.6	81	32.3	0	1	135	0.00	30.150 
02:30	37.5	37.5	37.5	81	32.2	0	0	---	0.00	30.147 
02:35	37.3	37.3	37.3	82	32.3	0	0	---	0.00	30.142 
02:40	37.3	37.3	37.3	82	32.3	0	1	135	0.00	30.138 
02:45	37.2	37.2	37.2	82	32.2	0	1	135	0.00	30.133 
02:50	37.2	37.2	37.2	83	32.5	0	2	135	0.00	30.126 
02:55	37.2	37.2	37.2	83	32.5	0	1	135	0.00	30.122 
03:00	37.2	37.2	37.2	83	32.5	0	1	135	0.00	30.121 
03:05	37.2	37.2	37.2	83	32.5	0	2	135	0.00	30.120 
03:10	37.2	37.2	37.2	82	32.2	0	2	135	0.00	30.113 
03:15	37.2	37.2	37.2	82	32.2	0	1	135	0.00	30.113 
03:20	37.2	37.2	37.2	82	32.2	0	2	135	0.00	30.106 
03:25	37.2	37.2	37.2	82	32.2	1	3	135	0.00	30.101 
03:30	37.3	37.3	37.3	82	32.3	1	4	112	0.00	30.092 
03:35	37.3	37.3	37.3	82	32.3	0	2	112	0.00	30.090 
03:40	37.5	37.5	37.5	81	32.2	0	2	135	0.00	30.090 
03:45	37.6	37.6	37.6	81	32.3	1	3	68	0.00	30.090 
03:50	37.8	37.8	37.8	81	32.5	0	2	68	0.00	30.095 
03:55	37.8	37.8	37.8	81	32.5	0	2	68	0.00	30.094 
04:00	37.9	37.9	37.9	80	32.3	0	1	68	0.00	30.097 
04:05	37.9	37.9	37.9	80	32.3	0	3	68	0.00	30.106 
04:10	37.9	37.9	37.9	80	32.3	0	2	135	0.00	30.103 
04:15	37.9	37.9	37.9	79	32.0	0	2	135	0.00	30.107 
04:20	38.0	38.0	38.0	80	32.4	0	0	---	0.00	30.114 
04:25	38.0	38.0	38.0	80	32.4	0	1	135	0.00	30.120 
04:30	38.2	38.2	38.2	80	32.6	0	2	135	0.00	30.121 
04:35	38.3	38.3	38.3	79	32.4	0	1	135	0.00	30.125 
04:40	38.5	38.5	38.5	79	32.6	0	1	135	0.00	30.137 
04:45	38.8	38.8	38.8	79	32.9	0	1	135	0.00	30.148 
04:50	38.8	38.8	38.8	79	32.9	0	0	---	0.00	30.151 
04:55	38.9	38.9	38.9	79	33.0	0	0	---	0.00	30.144 
05:00	38.9	38.9	38.9	79	33.0	0	1	135	0.00	30.137 
05:05	39.1	39.1	39.1	78	32.8	0	1	135	0.00	30.141 
05:10	39.2	39.2	39.2	78	32.9	0	3	135	0.00	30.131 
05:15	39.3	39.3	39.3	78	33.0	0	2	112	0.00	30.124 
05:20	39.3	39.3	39.3	78	33.0	1	3	135	0.00	30.121 
05:25	39.5	39.5	39.5	77	32.9	1	3	90	0.00	30.115 
05:30	39.8	39.8	39.8	76	32.9	1	5	90	0.00	30.106 
05:35	39.9	39.9	39.9	76	33.0	1	3	112	0.00	30.105 
05:40	40.1	40.1	40.1	76	33.2	1	3	112	0.00	30.108 
05:45	40.2	40.2	40.2	75	32.9	1	4	112	0.00	30.110 
05:50	40.2	40.2	40.2	76	33.3	1	3	90	0.00	30.108 
05:55	40.2	40.2	40.2	75	32.9	1	9	90	0.00	30.107 
06:00	40.5	40.5	40.5	75	33.2	2	6	90	0.00	30.110 
06:05	40.5	40.5	40.5	75	33.2	1	6	112	0.00	30.113 
06:10	40.5	40.5	40.5	77	33.9	1	7	112	0.00	30.121 
06:15	40.2	40.2	40.2	79	34.2	1	3	112	0.00	30.133 
06:20	40.1	40.1	40.1	80	34.4	0	2	248	0.01	30.138 
06:25	39.9	39.9	39.9	81	34.6	0	3	68	0.00	30.133 
06:30	39.8	39.8	39.8	83	35.1	0	1	68	0.00	30.128 
06:35	39.6	39.6	39.6	84	35.2	0	2	68	0.01	30.124 
06:40	39.5	39.5	39.5	85	35.4	1	4	112	0.00	30.118 
06:45	39.3	39.3	39.3	86	35.5	1	5	90	0.00	30.125 
06:50	39.2	39.2	39.2	87	35.7	0	2	90	0.01	30.129 
06:55	39.1	39.1	39.1	88	35.9	0	1	90	0.00	30.125 
07:00	39.1	39.1	39.1	88	35.9	1	3	90	0.00	30.121 
07:05	38.9	38.9	38.9	89	35.9	1	3	90	0.01	30.111 
07:10	38.9	38.9	38.9	90	36.2	1	3	90	0.00	30.113 
07:15	38.8	38.8	38.8	90	36.1	1	3	112	0.01	30.110 
07:20	38.8	38.8	38.8	90	36.1	1	2	112	0.01	30.113 
07:25	38.8	38.8	38.8	91	36.4	0	2	112	0.00	30.123 
07:30	38.8	38.8	38.8	91	36.4	0	3	248	0.01	30.121 
07:35	38.9	38.9	38.9	92	36.8	0	3	248	0.01	30.129 
07:40	38.9	38.9	38.9	92	36.8	0	2	248	0.00	30.150 
07:45	38.9	38.9	38.9	92	36.8	0	3	248	0.01	30.151 
07:50	38.9	38.9	38.9	92	36.8	0	1	248	0.00	30.149 
07:55	39.1	39.1	39.1	93	37.2	1	4	112	0.00	30.130 
08:00	39.1	39.1	39.1	93	37.2	1	4	112	0.01	30.114 
08:05	39.2	39.2	39.2	93	37.3	2	5	112	0.02	30.111 
08:10	39.3	39.3	39.3	93	37.4	1	4	112	0.01	30.111 
08:15	39.3	39.3	39.3	93	37.4	1	5	90	0.01	30.119 
08:20	39.5	39.5	39.5	93	37.6	1	3	270	0.01	30.129 
08:25	39.5	39.5	39.5	93	37.6	1	5	112	0.02	30.110 
08:30	39.5	39.5	39.5	94	37.9	1	3	112	0.02	30.112 
08:35	39.5	39.5	39.5	94	37.9	2	5	90	0.01	30.114 
08:40	39.5	39.5	39.5	94	37.9	1	3	68	0.02	30.114 
08:45	39.6	39.6	39.6	94	38.0	2	5	90	0.00	30.111 
08:50	39.6	39.6	39.6	94	38.0	1	3	90	0.01	30.110 
08:55	39.6	39.6	39.6	94	38.0	2	4	90	0.01	30.108 
09:00	39.8	39.8	39.8	94	38.2	2	7	90	0.01	30.108 
09:05	39.8	39.8	39.8	94	38.2	2	8	45	0.00	30.104 
09:10	39.9	39.9	39.9	94	38.3	1	6	90	0.01	30.108 
09:15	39.9	39.9	39.9	94	38.3	1	4	112	0.02	30.096 
09:20	39.9	39.9	39.9	94	38.3	3	6	90	0.04	30.094 
09:25	39.9	39.9	39.9	94	38.3	2	9	112	0.01	30.094 
09:30	39.9	39.9	39.9	94	38.3	2	9	112	0.00	30.090 
09:35	39.9	39.9	39.9	94	38.3	2	11	112	0.00	30.091 
09:40	39.9	39.9	39.9	94	38.3	2	6	90	0.00	30.085 
09:45	39.9	39.9	39.9	94	38.3	2	6	90	0.00	30.084 
09:50	39.9	39.9	39.9	94	38.3	2	7	90	0.00	30.078 
09:55	39.9	39.9	39.9	94	38.3	2	9	90	0.04	30.082 
10:00	40.1	40.1	40.1	94	38.5	2	6	90	0.00	30.079 
10:05	40.1	40.1	40.1	94	38.5	2	5	112	0.00	30.079 
10:10	40.1	40.1	40.1	94	38.5	2	6	112	0.01	30.077 
10:15	40.1	40.1	40.1	94	38.5	2	5	112	0.00	30.076 
10:20	40.2	40.2	40.2	94	38.6	2	9	90	0.00	30.075 
10:25	40.2	40.2	40.2	94	38.6	2	7	90	0.00	30.076 
10:30	40.2	40.2	40.2	94	38.6	2	5	90	0.00	30.072 
10:35	40.3	40.3	40.3	94	38.7	2	6	90	0.00	30.072 
10:40	40.3	40.3	40.3	94	38.7	2	5	68	0.00	30.075 
10:45	40.5	40.5	40.5	93	38.6	1	4	112	0.00	30.076 
10:50	40.5	40.5	40.5	93	38.6	3	7	90	0.00	30.077 
10:55	40.6	40.6	40.6	92	38.5	2	6	112	0.00	30.077 
11:00	40.6	40.6	40.6	92	38.5	2	7	90	0.00	30.075 
11:05	40.8	40.8	40.8	92	38.7	3	10	90	0.00	30.077 
11:10	40.9	40.9	40.9	91	38.5	3	7	90	0.00	30.074 
11:15	41.2	41.2	41.2	91	38.8	2	5	112	0.00	30.068 
11:20	41.2	41.2	41.2	91	38.8	2	7	68	0.00	30.075 
11:25	41.2	41.2	41.2	90	38.5	2	9	90	0.00	30.079 
11:30	41.2	41.2	41.2	89	38.2	2	5	90	0.00	30.074 
11:35	41.2	41.2	41.2	90	38.5	2	6	112	0.00	30.069 
11:40	41.2	41.2	41.2	89	38.2	2	7	112	0.00	30.064 
11:45	41.3	41.3	41.3	89	38.3	2	7	68	0.00	30.062 
11:50	41.5	41.5	41.5	89	38.5	2	6	112	0.00	30.059 
11:55	41.5	41.5	41.5	89	38.5	2	6	90	0.00	30.057 
12:00	41.6	41.6	41.6	89	38.6	2	7	112	0.00	30.052 
12:05	41.6	41.6	41.6	88	38.3	2	7	68	0.00	30.054 
12:10	41.6	41.6	41.6	88	38.3	2	5	90	0.00	30.047 
12:15	41.6	41.6	41.6	88	38.3	2	7	112	0.00	30.045 
12:20	41.6	41.6	41.6	87	38.0	2	6	112	0.00	30.046 
12:25	41.6	41.6	41.6	88	38.3	2	7	112	0.00	30.040 
12:30	41.6	41.6	41.6	88	38.3	2	5	112	0.00	30.038 
12:35	41.6	41.6	41.6	88	38.3	2	7	90	0.00	30.038 
12:40	41.6	41.6	41.6	88	38.3	2	8	90	0.00	30.033 
12:45	41.6	41.6	41.6	88	38.3	2	6	90	0.00	30.029 
12:50	41.5	41.5	41.5	88	38.2	3	7	90	0.00	30.024 
12:55	41.6	41.6	41.6	88	38.3	2	5	90	0.00	30.018 
13:00	41.8	41.8	41.8	88	38.5	2	7	90	0.00	30.015 
13:05	41.8	41.8	41.8	88	38.5	2	6	90	0.00	30.014 
13:10	41.9	41.9	41.9	88	38.6	2	5	90	0.00	30.012 
13:15	41.9	41.9	41.9	88	38.6	2	7	68	0.00	30.008 
13:20	41.9	41.9	41.9	88	38.6	1	4	22	0.00	30.003 
13:25	42.1	42.1	42.1	88	38.8	2	6	90	0.00	30.002 
13:30	42.1	42.1	42.1	88	38.8	2	6	68	0.00	29.998 
13:35	42.1	42.1	42.1	87	38.5	2	7	68	0.00	29.998 
13:40	42.2	42.2	42.2	87	38.6	1	4	248	0.00	29.999 
13:45	42.2	42.2	42.2	87	38.6	2	11	22	0.00	29.995 
13:50	42.2	42.2	42.2	87	38.6	1	5	315	0.00	29.996 
13:55	42.5	42.5	42.5	87	38.9	1	5	270	0.00	29.994 
14:00	42.5	42.5	42.5	87	38.9	2	6	270	0.00	29.994 
14:05	42.6	42.6	42.6	87	39.0	2	6	90	0.00	29.993 
14:10	42.6	42.6	42.6	87	39.0	1	5	90	0.00	29.985 
14:15	42.6	42.6	42.6	87	39.0	2	8	270	0.00	29.983 
14:20	42.6	42.6	42.6	87	39.0	1	4	45	0.00	29.983 
14:25	42.6	42.6	42.6	87	39.0	2	6	90	0.00	29.984 
14:30	42.6	42.6	42.6	87	39.0	2	7	90	0.00	29.986 
14:35	42.6	42.6	42.6	87	39.0	1	6	270	0.00	29.984 
14:40	42.6	42.6	42.6	88	39.3	1	10	248	0.00	29.983 
14:45	42.6	42.6	42.6	88	39.3	2	7	0	0.00	29.982 
14:50	42.6	42.6	42.6	88	39.3	1	4	270	0.00	29.982 
14:55	42.8	42.8	42.8	88	39.5	1	6	112	0.00	29.980 
15:00	42.8	42.8	42.8	88	39.5	1	6	68	0.00	29.980 
15:05	42.9	42.9	42.9	88	39.6	1	5	0	0.00	29.981 
15:10	42.9	42.9	42.9	88	39.6	1	7	248	0.00	29.981 
15:15	42.9	42.9	42.9	88	39.6	1	6	68	0.00	29.981 
15:20	42.9	42.9	42.9	88	39.6	1	4	135	0.00	29.982 
15:25	43.1	43.1	43.1	88	39.8	1	8	248	0.00	29.982 
15:30	43.1	43.1	43.1	88	39.8	1	4	45	0.00	29.981 
15:35	43.2	43.2	43.2	88	39.9	1	4	338	0.00	29.979 
15:40	43.3	43.3	43.3	87	39.7	1	5	248	0.00	29.978 
15:45	43.3	43.3	43.3	87	39.7	1	5	90	0.00	29.975 
15:50	43.5	43.5	43.5	87	39.9	1	5	68	0.00	29.975 
15:55	43.5	43.5	43.5	87	39.9	1	4	0	0.00	29.975 
16:00	43.6	43.6	43.6	87	40.0	1	3	292	0.00	29.975 
16:05	43.6	43.6	43.6	87	40.0	1	4	225	0.00	29.976 
16:10	43.8	43.8	43.8	86	39.9	1	3	338	0.00	29.979 
16:15	43.8	43.8	43.8	86	39.9	1	4	338	0.00	29.977 
16:20	43.9	43.9	43.9	87	40.3	0	2	338	0.00	29.978 
16:25	43.9	43.9	43.9	87	40.3	0	4	112	0.00	29.978 
16:30	43.9	43.9	43.9	87	40.3	1	5	225	0.00	29.979 
16:35	44.1	44.1	44.1	87	40.5	0	2	68	0.00	29.979 
16:40	44.1	44.1	44.1	87	40.5	1	4	248	0.00	29.978 
16:45	44.1	44.1	44.1	87	40.5	1	5	248	0.00	29.977 
16:50	44.1	44.1	44.1	87	40.5	1	4	270	0.00	29.976 
16:55	44.1	44.1	44.1	87	40.5	1	4	248	0.00	29.972 
17:00	44.1	44.1	44.1	88	40.8	1	5	248	0.00	29.971 
17:05	44.1	44.1	44.1	88	40.8	1	4	292	0.00	29.968 
17:10	44.1	44.1	44.1	88	40.8	1	3	22	0.00	29.969 
17:15	44.1	44.1	44.1	88	40.8	1	4	90	0.00	29.964 
17:20	44.1	44.1	44.1	88	40.8	1	5	248	0.00	29.964 
17:25	44.1	44.1	44.1	88	40.8	0	3	45	0.00	29.966 
17:30	44.1	44.1	44.1	88	40.8	0	4	248	0.00	29.968 
17:35	44.1	44.1	44.1	88	40.8	0	3	112	0.00	29.965 
17:40	44.2	44.2	44.2	88	40.9	0	3	68	0.00	29.972 
17:45	44.2	44.2	44.2	88	40.9	0	3	270	0.00	29.974 
17:50	44.2	44.2	44.2	88	40.9	0	3	68	0.00	29.975 
17:55	44.3	44.3	44.3	88	41.0	0	3	292	0.00	29.974 
18:00	44.3	44.3	44.3	88	41.0	0	4	292	0.00	29.976 
18:05	44.5	44.5	44.5	87	40.9	0	2	45	0.00	29.977 
18:10	44.5	44.5	44.5	87	40.9	0	2	45	0.00	29.976 
18:15	44.5	44.5	44.5	87	40.9	0	2	45	0.00	29.973 
18:20	44.6	44.6	44.6	87	41.0	0	3	45	0.00	29.976 
18:25	44.6	44.6	44.6	87	41.0	0	1	45	0.00	29.978 
18:30	44.6	44.6	44.6	87	41.0	0	1	45	0.00	29.978 
18:35	44.8	44.8	44.8	87	41.2	0	2	45	0.00	29.979 
18:40	44.8	44.8	44.8	87	41.2	1	4	45	0.00	29.973 
18:45	44.9	44.9	44.9	87	41.3	0	3	135	0.00	29.976 
18:50	44.9	44.9	44.9	87	41.3	1	4	90	0.00	29.976 
18:55	45.1	45.1	45.1	86	41.2	0	2	90	0.00	29.976 
19:00	45.1	45.1	45.1	86	41.2	0	2	90	0.00	29.978 
19:05	45.2	45.2	45.2	86	41.3	0	2	90	0.00	29.979 
19:10	45.4	45.4	45.4	86	41.5	0	3	90	0.00	29.979 
19:15	45.4	45.4	45.4	86	41.5	0	2	90	0.00	29.981 
19:20	45.5	45.5	45.5	86	41.6	0	1	90	0.00	29.983 
19:25	45.5	45.5	45.5	86	41.6	0	2	90	0.00	29.986 
19:30	45.7	45.7	45.7	86	41.8	0	1	90	0.00	29.986 
19:35	45.8	45.8	45.8	85	41.6	0	2	90	0.00	29.984 
19:40	45.8	45.8	45.8	85	41.6	0	3	90	0.00	29.983 
19:45	46.0	46.0	46.0	85	41.7	0	2	90	0.00	29.981 
19:50	46.1	46.1	46.1	85	41.8	0	4	270	0.00	29.984 
19:55	46.1	46.1	46.1	84	41.5	0	2	270	0.00	29.985 
20:00	46.2	46.2	46.2	84	41.6	0	3	68	0.00	29.986 
20:05	46.4	46.4	46.4	84	41.8	0	3	68	0.00	29.989 
20:10	46.4	46.4	46.4	84	41.8	0	2	270	0.00	29.991 
20:15	46.5	46.5	46.5	84	41.9	0	1	270	0.00	29.988 
20:20	46.5	46.5	46.5	84	41.9	0	2	270	0.00	29.989 
20:25	46.7	46.7	46.7	83	41.8	0	5	270	0.00	29.985 
20:30	46.8	46.8	46.8	83	41.9	0	3	90	0.00	29.983 
20:35	47.0	47.0	47.0	83	42.1	0	2	22	0.00	29.985 
20:40	47.0	47.0	47.0	82	41.8	0	3	22	0.00	29.980 
20:45	47.1	47.1	47.1	82	41.9	1	6	90	0.00	29.985 
20:50	47.3	47.3	47.3	81	41.8	0	3	270	0.00	29.989 
20:55	47.4	47.4	47.4	81	41.9	0	2	315	0.00	29.989 
21:00	47.6	47.6	47.6	81	42.1	1	4	270	0.00	29.986 
21:05	47.6	47.6	47.6	81	42.1	0	3	270	0.00	29.986 
21:10	47.7	47.7	47.7	81	42.2	0	3	248	0.00	29.987 
21:15	47.7	47.7	47.7	81	42.2	1	5	248	0.00	29.988 
21:20	47.9	47.9	47.9	81	42.4	0	2	248	0.00	29.989 
21:25	47.9	47.9	47.9	81	42.4	1	4	248	0.00	29.989 
21:30	48.0	48.0	48.0	81	42.5	1	3	248	0.00	29.989 
21:35	48.2	48.2	48.2	81	42.6	1	6	248	0.00	29.986 
21:40	48.3	48.3	48.3	81	42.7	1	4	248	0.00	29.982 
21:45	48.3	48.3	48.3	80	42.4	2	5	248	0.00	29.983 
21:50	48.5	48.5	48.5	80	42.6	2	5	270	0.00	29.987 
21:55	48.6	48.6	48.6	80	42.7	1	3	248	0.00	29.988 
22:00	48.8	48.8	48.8	80	42.9	2	5	248	0.00	29.988 
22:05	48.8	48.8	48.8	80	42.9	1	4	248	0.00	29.987 
22:10	48.8	48.8	48.8	80	42.9	1	3	248	0.00	29.989 
22:15	48.9	48.9	48.9	79	42.7	2	6	248	0.00	29.990 
22:20	49.1	49.1	49.1	80	43.2	1	3	248	0.00	29.990 
22:25	49.2	49.2	49.2	79	43.0	2	5	248	0.00	29.991 
22:30	49.2	49.2	49.2	80	43.3	1	5	248	0.00	29.991 
22:35	49.2	49.2	49.2	79	43.0	1	5	248	0.00	29.995 
22:40	49.4	49.4	49.4	80	43.5	1	4	248	0.00	29.997 
22:45	49.4	49.4	49.4	80	43.5	1	4	225	0.00	29.999 
22:50	49.5	49.5	49.5	80	43.6	1	4	225	0.00	30.002 
22:55	49.6	49.6	49.6	80	43.7	1	3	248	0.00	30.001 
23:00	49.6	49.6	49.6	80	43.7	0	2	248	0.00	30.000 
23:05	49.8	49.8	49.8	81	44.2	1	4	225	0.00	29.994 
23:10	49.9	49.9	49.9	81	44.3	1	4	248	0.00	29.991 
23:15	50.1	50.1	50.1	81	44.5	1	5	248	0.00	29.989 
23:20	50.2	50.2	50.2	80	44.3	2	6	248	0.00	29.994 
23:25	50.4	50.4	50.4	81	44.8	2	5	248	0.00	29.996 
23:30	50.5	50.5	50.5	81	44.9	2	7	248	0.00	30.000 
23:35	50.7	50.7	50.7	81	45.1	2	5	248	0.00	30.000 
23:40	50.7	50.7	50.7	80	44.8	1	5	248	0.00	30.003 
23:45	50.7	50.7	50.7	80	44.8	2	4	248	0.00	30.003 
23:50	50.8	50.8	50.8	80	44.9	2	5	248	0.00	30.003 
23:55	50.8	50.8	50.8	80	44.9	2	6	248	0.00	30.003 

CoCoRaHS
IN-AL-39
A2 Web Hosting
Creative Commons License
GoDaddy
Look for:

loaded 2017-12-10 21:44:42 • last modified 2010-11-18 10:43:29
Privacy PolicyDisclaimer
• wx.awcolley.com is powered by PmWiki v.2002016 •
• all content (unless otherwise noted) © 2017 A W Colley